Time,TemperatureF,DewpointF,PressureIn,WindDirection,WindDirectionDegrees,WindSpeedMPH,WindSpeedGustMPH,Humidity,HourlyPrecipIn,Conditions,Clouds,dailyrainin,SoftwareType,DateUTC
2013-01-20 00:00:00,41.8,38.2,30.23,SSW,202,0.0,0.0,87,0.00,,CLR,0.00,VWS V14.01,2013-01-20 06:00:00,
2013-01-20 00:03:00,41.4,38.1,30.23,SSW,202,0.0,0.0,88,0.00,,CLR,0.00,VWS V14.01,2013-01-20 06:03:00,
2013-01-20 00:08:00,41.3,38.0,30.23,SSW,202,0.0,0.0,88,0.00,,CLR,0.00,VWS V14.01,2013-01-20 06:08:00,
2013-01-20 00:10:00,41.4,38.1,30.23,SSW,202,0.0,0.0,88,0.00,,CLR,0.00,VWS V14.01,2013-01-20 06:10:00,
2013-01-20 00:13:00,41.3,38.0,30.23,SSW,202,0.0,0.0,88,0.00,,CLR,0.00,VWS V14.01,2013-01-20 06:13:00,
2013-01-20 00:18:00,41.3,38.0,30.23,SSW,202,0.0,0.0,88,0.00,,CLR,0.00,VWS V14.01,2013-01-20 06:18:00,
2013-01-20 00:20:00,41.3,38.0,30.23,SSW,202,0.0,0.0,88,0.00,,CLR,0.00,VWS V14.01,2013-01-20 06:20:00,
2013-01-20 00:23:00,41.1,37.8,30.23,SSW,202,0.0,0.0,88,0.00,,CLR,0.00,VWS V14.01,2013-01-20 06:23:00,
2013-01-20 00:28:00,41.1,37.8,30.23,SSW,202,0.0,0.0,88,0.00,,CLR,0.00,VWS V14.01,2013-01-20 06:28:00,
2013-01-20 00:30:00,41.3,38.0,30.23,SSW,202,0.0,0.0,88,0.00,,CLR,0.00,VWS V14.01,2013-01-20 06:30:00,
2013-01-20 00:33:00,41.0,38.0,30.23,SSW,202,0.0,0.0,89,0.00,,CLR,0.00,VWS V14.01,2013-01-20 06:33:00,
2013-01-20 00:38:00,40.8,37.8,30.23,SSW,202,0.0,0.0,89,0.00,,CLR,0.00,VWS V14.01,2013-01-20 06:38:00,
2013-01-20 00:40:00,41.1,37.8,30.23,SSW,202,0.0,0.0,88,0.00,,CLR,0.00,VWS V14.01,2013-01-20 06:40:00,
2013-01-20 00:43:00,40.7,37.4,30.23,SSW,202,0.0,0.0,88,0.00,,CLR,0.00,VWS V14.01,2013-01-20 06:43:00,
2013-01-20 00:48:00,40.6,37.6,30.23,SSW,202,0.0,0.0,89,0.00,,CLR,0.00,VWS V14.01,2013-01-20 06:48:00,
2013-01-20 00:50:00,40.8,37.8,30.23,SSW,202,0.0,0.0,89,0.00,,CLR,0.00,VWS V14.01,2013-01-20 06:50:00,
2013-01-20 00:53:00,40.3,37.3,30.23,SSW,202,0.0,0.0,89,0.00,,CLR,0.00,VWS V14.01,2013-01-20 06:53:00,
2013-01-20 00:58:00,40.1,37.1,30.23,SSW,202,0.0,0.0,89,0.00,,CLR,0.00,VWS V14.01,2013-01-20 06:58:00,
2013-01-20 01:00:00,40.4,37.4,30.23,SSW,202,0.0,0.0,89,0.00,,CLR,0.00,VWS V14.01,2013-01-20 07:00:00,
2013-01-20 01:03:00,40.3,37.6,30.22,SSW,202,0.0,0.0,90,0.00,,CLR,0.00,VWS V14.01,2013-01-20 07:03:00,
2013-01-20 01:08:00,40.1,37.1,30.22,SSW,202,0.0,0.0,89,0.00,,CLR,0.00,VWS V14.01,2013-01-20 07:08:00,
2013-01-20 01:10:00,40.1,37.1,30.23,SSW,202,0.0,0.0,89,0.00,,CLR,0.00,VWS V14.01,2013-01-20 07:10:00,
2013-01-20 01:13:00,40.1,37.4,30.22,SSW,202,0.0,0.0,90,0.00,,CLR,0.00,VWS V14.01,2013-01-20 07:13:00,
2013-01-20 01:18:00,40.0,37.3,30.22,SSW,202,0.0,0.0,90,0.00,,CLR,0.00,VWS V14.01,2013-01-20 07:18:00,
2013-01-20 01:20:00,40.1,37.1,30.22,SSW,202,0.0,0.0,89,0.00,,CLR,0.00,VWS V14.01,2013-01-20 07:20:00,
2013-01-20 01:23:00,40.0,37.3,30.22,SSW,202,0.0,0.0,90,0.00,,CLR,0.00,VWS V14.01,2013-01-20 07:23:00,
2013-01-20 01:28:00,39.7,37.0,30.22,SSW,202,0.0,0.0,90,0.00,,CLR,0.00,VWS V14.01,2013-01-20 07:28:00,
2013-01-20 01:30:00,40.0,37.3,30.22,SSW,202,0.0,0.0,90,0.00,,CLR,0.00,VWS V14.01,2013-01-20 07:30:00,
2013-01-20 01:33:00,39.6,36.9,30.22,SSW,202,0.0,0.0,90,0.00,,CLR,0.00,VWS V14.01,2013-01-20 07:33:00,
2013-01-20 01:38:00,39.6,36.9,30.22,SSW,202,0.0,0.0,90,0.00,,CLR,0.00,VWS V14.01,2013-01-20 07:38:00,
2013-01-20 01:40:00,39.7,37.0,30.22,SSW,202,0.0,0.0,90,0.00,,CLR,0.00,VWS V14.01,2013-01-20 07:40:00,
2013-01-20 01:43:00,39.4,36.7,30.22,SSW,202,0.0,0.0,90,0.00,,CLR,0.00,VWS V14.01,2013-01-20 07:43:00,
2013-01-20 01:48:00,39.4,37.0,30.22,SSW,202,0.0,0.0,91,0.00,,CLR,0.00,VWS V14.01,2013-01-20 07:48:00,
2013-01-20 01:50:00,39.6,36.9,30.22,SSW,202,0.0,0.0,90,0.00,,CLR,0.00,VWS V14.01,2013-01-20 07:50:00,
2013-01-20 01:53:00,39.6,37.2,30.22,SSW,202,0.0,0.0,91,0.00,,CLR,0.00,VWS V14.01,2013-01-20 07:53:00,
2013-01-20 01:58:00,39.6,37.2,30.22,SSW,202,0.0,0.0,91,0.00,,CLR,0.00,VWS V14.01,2013-01-20 07:58:00,
2013-01-20 02:00:00,39.4,37.0,30.22,SSW,202,0.0,0.0,91,0.00,,CLR,0.00,VWS V14.01,2013-01-20 08:00:00,
2013-01-20 02:03:00,39.6,37.2,30.22,SSW,202,0.0,0.0,91,0.00,,CLR,0.00,VWS V14.01,2013-01-20 08:03:00,
2013-01-20 02:08:00,39.6,37.2,30.22,SSW,202,0.0,0.0,91,0.00,,CLR,0.00,VWS V14.01,2013-01-20 08:08:00,
2013-01-20 02:10:00,39.6,37.2,30.22,SSW,202,0.0,0.0,91,0.00,,CLR,0.00,VWS V14.01,2013-01-20 08:10:00,
2013-01-20 02:13:00,39.4,37.0,30.22,SSW,202,0.0,0.0,91,0.00,,CLR,0.00,VWS V14.01,2013-01-20 08:13:00,
2013-01-20 02:18:00,39.3,36.9,30.21,SSW,202,0.0,0.0,91,0.00,,CLR,0.00,VWS V14.01,2013-01-20 08:18:00,
2013-01-20 02:20:00,39.4,37.0,30.22,SSW,202,0.0,0.0,91,0.00,,CLR,0.00,VWS V14.01,2013-01-20 08:20:00,
2013-01-20 02:23:00,39.1,36.7,30.21,SSW,202,0.0,0.0,91,0.00,,CLR,0.00,VWS V14.01,2013-01-20 08:23:00,
2013-01-20 02:28:00,39.0,36.6,30.21,SSW,202,0.0,0.0,91,0.00,,CLR,0.00,VWS V14.01,2013-01-20 08:28:00,
2013-01-20 02:30:00,39.1,36.7,30.21,SSW,202,0.0,0.0,91,0.00,,CLR,0.00,VWS V14.01,2013-01-20 08:30:00,
2013-01-20 02:33:00,39.0,36.6,30.22,SSW,202,0.0,0.0,91,0.00,,CLR,0.00,VWS V14.01,2013-01-20 08:33:00,
2013-01-20 02:38:00,39.0,36.9,30.22,SSW,202,0.0,0.0,92,0.00,,CLR,0.00,VWS V14.01,2013-01-20 08:38:00,
2013-01-20 02:40:00,39.0,36.6,30.21,SSW,202,0.0,0.0,91,0.00,,CLR,0.00,VWS V14.01,2013-01-20 08:40:00,
2013-01-20 02:43:00,38.8,36.4,30.22,SSW,202,0.0,0.0,91,0.00,,CLR,0.00,VWS V14.01,2013-01-20 08:43:00,
2013-01-20 02:48:00,38.8,36.7,30.21,SSW,202,0.0,0.0,92,0.00,,CLR,0.00,VWS V14.01,2013-01-20 08:48:00,
2013-01-20 02:50:00,39.0,36.9,30.22,SSW,202,0.0,0.0,92,0.00,,CLR,0.00,VWS V14.01,2013-01-20 08:50:00,
2013-01-20 02:53:00,38.8,36.7,30.21,SSW,202,0.0,0.0,92,0.00,,CLR,0.00,VWS V14.01,2013-01-20 08:53:00,
2013-01-20 02:58:00,38.8,36.7,30.21,SSW,202,0.0,0.0,92,0.00,,CLR,0.00,VWS V14.01,2013-01-20 08:58:00,
2013-01-20 03:00:00,38.8,36.7,30.21,SSW,202,0.0,0.0,92,0.00,,CLR,0.00,VWS V14.01,2013-01-20 09:00:00,
2013-01-20 03:03:00,39.0,36.9,30.21,SSW,202,0.0,0.0,92,0.00,,CLR,0.00,VWS V14.01,2013-01-20 09:03:00,
2013-01-20 03:08:00,39.0,36.9,30.21,SSW,202,0.0,0.0,92,0.00,,CLR,0.00,VWS V14.01,2013-01-20 09:08:00,
2013-01-20 03:10:00,38.8,36.7,30.21,SSW,202,0.0,0.0,92,0.00,,CLR,0.00,VWS V14.01,2013-01-20 09:10:00,
2013-01-20 03:13:00,38.8,36.7,30.21,SSW,202,0.0,0.0,92,0.00,,CLR,0.00,VWS V14.01,2013-01-20 09:13:00,
2013-01-20 03:18:00,38.8,36.7,30.21,SSW,202,0.0,0.0,92,0.00,,CLR,0.00,VWS V14.01,2013-01-20 09:18:00,
2013-01-20 03:20:00,39.0,36.9,30.21,SSW,202,0.0,0.0,92,0.00,,CLR,0.00,VWS V14.01,2013-01-20 09:20:00,
2013-01-20 03:23:00,38.7,36.6,30.21,SSW,202,0.0,0.0,92,0.00,,CLR,0.00,VWS V14.01,2013-01-20 09:23:00,
2013-01-20 03:28:00,38.6,36.5,30.21,SSW,202,0.0,0.0,92,0.00,,CLR,0.00,VWS V14.01,2013-01-20 09:28:00,
2013-01-20 03:30:00,38.8,36.7,30.21,SSW,202,0.0,0.0,92,0.00,,CLR,0.00,VWS V14.01,2013-01-20 09:30:00,
2013-01-20 03:33:00,38.3,36.2,30.21,SSW,202,0.0,0.0,92,0.00,,CLR,0.00,VWS V14.01,2013-01-20 09:33:00,
2013-01-20 03:38:00,38.1,36.0,30.21,SSW,202,0.0,0.0,92,0.00,,CLR,0.00,VWS V14.01,2013-01-20 09:38:00,
2013-01-20 03:40:00,38.4,36.3,30.21,SSW,202,0.0,0.0,92,0.00,,CLR,0.00,VWS V14.01,2013-01-20 09:40:00,
2013-01-20 03:43:00,38.0,35.9,30.21,SSW,202,0.0,0.0,92,0.00,,CLR,0.00,VWS V14.01,2013-01-20 09:43:00,
2013-01-20 03:48:00,37.8,35.7,30.20,SSW,202,0.0,0.0,92,0.00,,CLR,0.00,VWS V14.01,2013-01-20 09:48:00,
2013-01-20 03:50:00,38.1,36.0,30.21,SSW,202,0.0,0.0,92,0.00,,CLR,0.00,VWS V14.01,2013-01-20 09:50:00,
2013-01-20 03:53:00,38.1,36.3,30.20,SSW,202,0.0,0.0,93,0.00,,CLR,0.00,VWS V14.01,2013-01-20 09:53:00,
2013-01-20 03:58:00,38.1,36.3,30.20,SSW,202,0.0,0.0,93,0.00,,CLR,0.00,VWS V14.01,2013-01-20 09:58:00,
2013-01-20 04:00:00,37.8,35.7,30.20,SSW,202,0.0,0.0,92,0.00,,CLR,0.00,VWS V14.01,2013-01-20 10:00:00,
2013-01-20 04:03:00,38.1,36.3,30.20,SSW,202,0.0,0.0,93,0.00,,CLR,0.00,VWS V14.01,2013-01-20 10:03:00,
2013-01-20 04:08:00,38.1,36.0,30.20,SSW,202,0.0,0.0,92,0.00,,CLR,0.00,VWS V14.01,2013-01-20 10:08:00,
2013-01-20 04:10:00,38.1,36.3,30.20,SSW,202,0.0,0.0,93,0.00,,CLR,0.00,VWS V14.01,2013-01-20 10:10:00,
2013-01-20 04:13:00,38.0,35.9,30.20,SSW,202,0.0,0.0,92,0.00,,CLR,0.00,VWS V14.01,2013-01-20 10:13:00,
2013-01-20 04:18:00,37.8,35.7,30.20,SSW,202,0.0,0.0,92,0.00,,CLR,0.00,VWS V14.01,2013-01-20 10:18:00,
2013-01-20 04:20:00,38.1,36.0,30.20,SSW,202,0.0,0.0,92,0.00,,CLR,0.00,VWS V14.01,2013-01-20 10:20:00,
2013-01-20 04:23:00,37.7,35.6,30.20,SSW,202,0.0,0.0,92,0.00,,CLR,0.00,VWS V14.01,2013-01-20 10:23:00,
2013-01-20 04:28:00,37.5,35.4,30.20,SSW,202,0.0,0.0,92,0.00,,CLR,0.00,VWS V14.01,2013-01-20 10:28:00,
2013-01-20 04:30:00,37.8,35.7,30.20,SSW,202,0.0,0.0,92,0.00,,CLR,0.00,VWS V14.01,2013-01-20 10:30:00,
2013-01-20 04:33:00,37.5,35.7,30.20,SSW,202,0.0,0.0,93,0.00,,CLR,0.00,VWS V14.01,2013-01-20 10:33:00,
2013-01-20 04:38:00,37.5,35.7,30.20,SSW,202,0.0,0.0,93,0.00,,CLR,0.00,VWS V14.01,2013-01-20 10:38:00,
2013-01-20 04:40:00,37.5,35.4,30.20,SSW,202,0.0,0.0,92,0.00,,CLR,0.00,VWS V14.01,2013-01-20 10:40:00,
2013-01-20 04:43:00,37.4,35.6,30.20,SSW,202,0.0,0.0,93,0.00,,CLR,0.00,VWS V14.01,2013-01-20 10:43:00,
2013-01-20 04:48:00,37.3,35.5,30.20,SSW,202,0.0,0.0,93,0.00,,CLR,0.00,VWS V14.01,2013-01-20 10:48:00,
2013-01-20 04:50:00,37.5,35.7,30.20,SSW,202,0.0,0.0,93,0.00,,CLR,0.00,VWS V14.01,2013-01-20 10:50:00,
2013-01-20 04:53:00,37.3,35.5,30.20,SSW,202,0.0,0.0,93,0.00,,CLR,0.00,VWS V14.01,2013-01-20 10:53:00,
2013-01-20 04:58:00,37.1,35.3,30.20,SSW,202,0.0,0.0,93,0.00,,CLR,0.00,VWS V14.01,2013-01-20 10:58:00,
2013-01-20 05:00:00,37.3,35.5,30.20,SSW,202,0.0,0.0,93,0.00,,CLR,0.00,VWS V14.01,2013-01-20 11:00:00,
2013-01-20 05:03:00,37.1,35.3,30.19,SSW,202,0.0,0.0,93,0.00,,CLR,0.00,VWS V14.01,2013-01-20 11:03:00,
2013-01-20 05:08:00,37.1,35.3,30.19,SSW,202,0.0,0.0,93,0.00,,CLR,0.00,VWS V14.01,2013-01-20 11:08:00,
2013-01-20 05:10:00,37.1,35.3,30.20,SSW,202,0.0,0.0,93,0.00,,CLR,0.00,VWS V14.01,2013-01-20 11:10:00,
2013-01-20 05:13:00,37.3,35.5,30.19,SSW,202,0.0,0.0,93,0.00,,CLR,0.00,VWS V14.01,2013-01-20 11:13:00,
2013-01-20 05:18:00,37.1,35.3,30.19,SSW,202,0.0,0.0,93,0.00,,CLR,0.00,VWS V14.01,2013-01-20 11:18:00,
2013-01-20 05:20:00,37.3,35.5,30.19,SSW,202,0.0,0.0,93,0.00,,CLR,0.00,VWS V14.01,2013-01-20 11:20:00,
2013-01-20 05:23:00,37.1,35.3,30.19,SSW,202,0.0,0.0,93,0.00,,CLR,0.00,VWS V14.01,2013-01-20 11:23:00,
2013-01-20 05:28:00,37.3,35.5,30.19,SSW,202,0.0,0.0,93,0.00,,CLR,0.00,VWS V14.01,2013-01-20 11:28:00,
2013-01-20 05:30:00,37.1,35.3,30.19,SSW,202,0.0,0.0,93,0.00,,CLR,0.00,VWS V14.01,2013-01-20 11:30:00,
2013-01-20 05:33:00,37.3,35.5,30.18,SSW,202,0.0,0.0,93,0.00,,CLR,0.00,VWS V14.01,2013-01-20 11:33:00,
2013-01-20 05:38:00,37.3,35.5,30.18,SSW,202,0.0,0.0,93,0.00,,CLR,0.00,VWS V14.01,2013-01-20 11:38:00,
2013-01-20 05:40:00,37.3,35.5,30.19,SSW,202,0.0,0.0,93,0.00,,CLR,0.00,VWS V14.01,2013-01-20 11:40:00,
2013-01-20 05:43:00,37.1,35.3,30.18,SSW,202,0.0,0.0,93,0.00,,CLR,0.00,VWS V14.01,2013-01-20 11:43:00,
2013-01-20 05:48:00,37.1,35.3,30.18,SSW,202,0.0,0.0,93,0.00,,CLR,0.00,VWS V14.01,2013-01-20 11:48:00,
2013-01-20 05:50:00,37.3,35.5,30.18,SSW,202,0.0,0.0,93,0.00,,CLR,0.00,VWS V14.01,2013-01-20 11:50:00,
2013-01-20 05:53:00,37.0,35.2,30.18,SSW,202,0.0,0.0,93,0.00,,CLR,0.00,VWS V14.01,2013-01-20 11:53:00,
2013-01-20 05:58:00,36.8,35.0,30.18,SSW,202,0.0,0.0,93,0.00,,CLR,0.00,VWS V14.01,2013-01-20 11:58:00,
2013-01-20 06:00:00,37.1,35.3,30.18,SSW,202,0.0,0.0,93,0.00,,CLR,0.00,VWS V14.01,2013-01-20 12:00:00,
2013-01-20 06:03:00,36.7,34.9,30.19,SSW,202,0.0,0.0,93,0.00,,CLR,0.00,VWS V14.01,2013-01-20 12:03:00,
2013-01-20 06:08:00,36.5,34.7,30.19,SSW,202,0.0,0.0,93,0.00,,CLR,0.00,VWS V14.01,2013-01-20 12:08:00,
2013-01-20 06:10:00,36.8,35.0,30.18,SSW,202,0.0,0.0,93,0.00,,CLR,0.00,VWS V14.01,2013-01-20 12:10:00,
2013-01-20 06:13:00,36.5,34.7,30.19,SSW,202,0.0,0.0,93,0.00,,CLR,0.00,VWS V14.01,2013-01-20 12:13:00,
2013-01-20 06:18:00,36.4,34.6,30.20,SSW,202,0.0,0.0,93,0.00,,CLR,0.00,VWS V14.01,2013-01-20 12:18:00,
2013-01-20 06:20:00,36.5,34.7,30.19,SSW,202,0.0,0.0,93,0.00,,CLR,0.00,VWS V14.01,2013-01-20 12:20:00,
2013-01-20 06:23:00,36.3,34.5,30.20,SSW,202,0.0,0.0,93,0.00,,CLR,0.00,VWS V14.01,2013-01-20 12:23:00,
2013-01-20 06:28:00,36.3,34.5,30.20,SSW,202,0.0,0.0,93,0.00,,CLR,0.00,VWS V14.01,2013-01-20 12:28:00,
2013-01-20 06:30:00,36.4,34.6,30.20,SSW,202,0.0,0.0,93,0.00,,CLR,0.00,VWS V14.01,2013-01-20 12:30:00,
2013-01-20 06:33:00,36.1,34.3,30.20,SSW,202,0.0,0.0,93,0.00,,CLR,0.00,VWS V14.01,2013-01-20 12:33:00,
2013-01-20 06:38:00,36.1,34.5,30.20,SSW,202,0.0,0.0,94,0.00,,CLR,0.00,VWS V14.01,2013-01-20 12:38:00,
2013-01-20 06:40:00,36.3,34.5,30.20,SSW,202,0.0,0.0,93,0.00,,CLR,0.00,VWS V14.01,2013-01-20 12:40:00,
2013-01-20 06:43:00,36.1,34.5,30.20,SSW,202,0.0,0.0,94,0.00,,CLR,0.00,VWS V14.01,2013-01-20 12:43:00,
2013-01-20 06:48:00,36.1,34.5,30.20,SSW,202,0.0,0.0,94,0.00,,CLR,0.00,VWS V14.01,2013-01-20 12:48:00,
2013-01-20 06:50:00,36.1,34.3,30.20,SSW,202,0.0,0.0,93,0.00,,CLR,0.00,VWS V14.01,2013-01-20 12:50:00,
2013-01-20 06:53:00,36.1,34.3,30.20,SSW,202,0.0,0.0,93,0.00,,CLR,0.00,VWS V14.01,2013-01-20 12:53:00,
2013-01-20 06:58:00,36.0,34.2,30.20,SSW,202,0.0,0.0,93,0.00,,CLR,0.00,VWS V14.01,2013-01-20 12:58:00,
2013-01-20 07:00:00,36.1,34.5,30.20,SSW,202,0.0,0.0,94,0.00,,CLR,0.00,VWS V14.01,2013-01-20 13:00:00,
2013-01-20 07:03:00,36.1,34.5,30.21,SSW,202,0.0,0.0,94,0.00,,CLR,0.00,VWS V14.01,2013-01-20 13:03:00,
2013-01-20 07:08:00,36.3,34.7,30.21,SSW,202,0.0,0.0,94,0.00,,CLR,0.00,VWS V14.01,2013-01-20 13:08:00,
2013-01-20 07:10:00,36.0,34.4,30.20,SSW,202,0.0,0.0,94,0.00,,CLR,0.00,VWS V14.01,2013-01-20 13:10:00,
2013-01-20 07:13:00,36.1,34.5,30.21,SSW,202,0.0,0.0,94,0.00,,CLR,0.00,VWS V14.01,2013-01-20 13:13:00,
2013-01-20 07:18:00,36.1,34.5,30.21,SSW,202,0.0,0.0,94,0.00,,CLR,0.00,VWS V14.01,2013-01-20 13:18:00,
2013-01-20 07:20:00,36.3,34.7,30.21,SSW,202,0.0,0.0,94,0.00,,CLR,0.00,VWS V14.01,2013-01-20 13:20:00,
2013-01-20 07:23:00,36.3,34.7,30.21,SSW,202,0.0,0.0,94,0.00,,CLR,0.00,VWS V14.01,2013-01-20 13:23:00,
2013-01-20 07:28:00,36.1,34.5,30.21,SSW,205,0.0,0.0,94,0.00,,CLR,0.00,VWS V14.01,2013-01-20 13:28:00,
2013-01-20 07:30:00,36.1,34.5,30.21,SSW,202,0.0,0.0,94,0.00,,CLR,0.00,VWS V14.01,2013-01-20 13:30:00,
2013-01-20 07:33:00,36.1,34.5,30.22,SSW,205,0.0,0.0,94,0.00,,CLR,0.00,VWS V14.01,2013-01-20 13:33:00,
2013-01-20 07:38:00,36.0,34.4,30.22,SSW,205,0.0,0.0,94,0.00,,CLR,0.00,VWS V14.01,2013-01-20 13:38:00,
2013-01-20 07:40:00,36.3,34.7,30.21,SSW,205,0.0,0.0,94,0.00,,CLR,0.00,VWS V14.01,2013-01-20 13:40:00,
2013-01-20 07:43:00,36.0,34.4,30.22,SSW,205,0.0,0.0,94,0.00,,CLR,0.00,VWS V14.01,2013-01-20 13:43:00,
2013-01-20 07:48:00,36.3,34.7,30.22,SSW,205,0.0,0.0,94,0.00,,CLR,0.00,VWS V14.01,2013-01-20 13:48:00,
2013-01-20 07:50:00,36.0,34.4,30.22,SSW,205,0.0,0.0,94,0.00,,CLR,0.00,VWS V14.01,2013-01-20 13:50:00,
2013-01-20 07:53:00,36.3,34.7,30.22,SSW,205,0.0,0.0,94,0.00,,CLR,0.00,VWS V14.01,2013-01-20 13:53:00,
2013-01-20 07:58:00,36.5,34.9,30.22,SSW,205,0.0,0.0,94,0.00,,CLR,0.00,VWS V14.01,2013-01-20 13:58:00,
2013-01-20 08:00:00,36.3,34.7,30.22,SSW,205,0.0,0.0,94,0.00,,CLR,0.00,VWS V14.01,2013-01-20 14:00:00,
2013-01-20 08:03:00,36.7,35.1,30.23,SSW,205,0.0,0.0,94,0.00,,CLR,0.00,VWS V14.01,2013-01-20 14:03:00,
2013-01-20 08:08:00,37.0,35.4,30.23,SSW,205,0.0,0.0,94,0.00,,CLR,0.00,VWS V14.01,2013-01-20 14:08:00,
2013-01-20 08:10:00,36.5,34.9,30.22,SSW,205,0.0,0.0,94,0.00,,CLR,0.00,VWS V14.01,2013-01-20 14:10:00,
2013-01-20 08:13:00,37.5,36.2,30.23,SSW,205,0.0,0.0,95,0.00,,CLR,0.00,VWS V14.01,2013-01-20 14:13:00,
2013-01-20 08:18:00,38.0,36.7,30.23,SSW,205,0.0,0.0,95,0.00,,CLR,0.00,VWS V14.01,2013-01-20 14:18:00,
2013-01-20 08:20:00,37.0,35.4,30.23,SSW,205,0.0,0.0,94,0.00,,CLR,0.00,VWS V14.01,2013-01-20 14:20:00,
2013-01-20 08:23:00,38.6,37.3,30.23,SSW,205,0.0,0.0,95,0.00,,CLR,0.00,VWS V14.01,2013-01-20 14:23:00,
2013-01-20 08:28:00,39.3,38.0,30.23,SSW,205,0.0,0.0,95,0.00,,CLR,0.00,VWS V14.01,2013-01-20 14:28:00,
2013-01-20 08:30:00,38.0,36.7,30.23,SSW,205,0.0,0.0,95,0.00,,CLR,0.00,VWS V14.01,2013-01-20 14:30:00,
2013-01-20 08:33:00,40.0,38.7,30.23,SSW,205,0.0,0.0,95,0.00,,CLR,0.00,VWS V14.01,2013-01-20 14:33:00,
2013-01-20 08:38:00,40.8,39.5,30.23,SSW,205,0.0,0.0,95,0.00,,CLR,0.00,VWS V14.01,2013-01-20 14:38:00,
2013-01-20 08:40:00,39.4,38.1,30.23,SSW,205,0.0,0.0,95,0.00,,CLR,0.00,VWS V14.01,2013-01-20 14:40:00,
2013-01-20 08:43:00,41.6,40.3,30.23,SSW,205,0.0,0.0,95,0.00,,CLR,0.00,VWS V14.01,2013-01-20 14:43:00,
2013-01-20 08:48:00,42.4,41.1,30.24,SSW,205,0.0,0.0,95,0.00,,CLR,0.00,VWS V14.01,2013-01-20 14:48:00,
2013-01-20 08:50:00,40.8,39.5,30.23,SSW,205,0.0,0.0,95,0.00,,CLR,0.00,VWS V14.01,2013-01-20 14:50:00,
2013-01-20 08:53:00,43.4,42.1,30.24,SSW,205,0.0,0.0,95,0.00,,CLR,0.00,VWS V14.01,2013-01-20 14:53:00,
2013-01-20 08:58:00,44.4,43.3,30.24,SSW,205,0.0,0.0,96,0.00,,CLR,0.00,VWS V14.01,2013-01-20 14:58:00,
2013-01-20 09:00:00,42.6,41.3,30.24,SSW,205,0.0,0.0,95,0.00,,CLR,0.00,VWS V14.01,2013-01-20 15:00:00,
2013-01-20 09:03:00,45.3,44.2,30.24,SSW,205,0.0,0.0,96,0.00,,CLR,0.00,VWS V14.01,2013-01-20 15:03:00,
2013-01-20 09:08:00,46.3,45.0,30.24,SSW,205,0.0,0.0,95,0.00,,CLR,0.00,VWS V14.01,2013-01-20 15:08:00,
2013-01-20 09:10:00,44.4,43.3,30.24,SSW,205,0.0,0.0,96,0.00,,CLR,0.00,VWS V14.01,2013-01-20 15:10:00,
2013-01-20 09:13:00,47.2,45.8,30.24,SSW,205,0.0,0.0,95,0.00,,CLR,0.00,VWS V14.01,2013-01-20 15:13:00,
2013-01-20 09:18:00,48.1,46.7,30.24,SSW,205,0.0,0.0,95,0.00,,CLR,0.00,VWS V14.01,2013-01-20 15:18:00,
2013-01-20 09:20:00,46.3,45.0,30.24,SSW,205,0.0,0.0,95,0.00,,CLR,0.00,VWS V14.01,2013-01-20 15:20:00,
2013-01-20 09:23:00,49.3,47.9,30.24,SSW,205,0.0,0.0,95,0.00,,CLR,0.00,VWS V14.01,2013-01-20 15:23:00,
2013-01-20 09:28:00,50.3,48.6,30.24,SSW,205,0.0,0.0,94,0.00,,CLR,0.00,VWS V14.01,2013-01-20 15:28:00,
2013-01-20 09:30:00,48.1,46.7,30.24,SSW,205,0.0,0.0,95,0.00,,CLR,0.00,VWS V14.01,2013-01-20 15:30:00,
2013-01-20 09:33:00,50.9,49.2,30.24,SSW,205,0.0,0.0,94,0.00,,CLR,0.00,VWS V14.01,2013-01-20 15:33:00,
2013-01-20 09:38:00,51.8,49.8,30.24,SSW,205,0.0,0.0,93,0.00,,CLR,0.00,VWS V14.01,2013-01-20 15:38:00,
2013-01-20 09:40:00,50.3,48.6,30.24,SSW,205,0.0,0.0,94,0.00,,CLR,0.00,VWS V14.01,2013-01-20 15:40:00,
2013-01-20 09:43:00,52.7,50.2,30.24,SSW,205,0.0,1.0,91,0.00,,CLR,0.00,VWS V14.01,2013-01-20 15:43:00,
2013-01-20 09:48:00,53.7,50.5,30.25,SSW,205,0.0,1.0,89,0.00,,CLR,0.00,VWS V14.01,2013-01-20 15:48:00,
2013-01-20 09:50:00,51.8,49.8,30.24,SSW,205,0.0,0.0,93,0.00,,CLR,0.00,VWS V14.01,2013-01-20 15:50:00,
2013-01-20 09:53:00,54.6,50.5,30.25,SSW,205,0.0,2.0,86,0.00,,CLR,0.00,VWS V14.01,2013-01-20 15:53:00,
2013-01-20 09:58:00,55.7,51.0,30.25,SSW,205,2.0,3.0,84,0.00,,CLR,0.00,VWS V14.01,2013-01-20 15:58:00,
2013-01-20 10:00:00,53.7,50.5,30.25,SSW,205,0.0,1.0,89,0.00,,CLR,0.00,VWS V14.01,2013-01-20 16:00:00,
2013-01-20 10:03:00,56.7,50.9,30.25,SSW,205,1.0,2.0,81,0.00,,CLR,0.00,VWS V14.01,2013-01-20 16:03:00,
2013-01-20 10:08:00,57.5,50.7,30.25,SSW,205,0.0,2.0,78,0.00,,CLR,0.00,VWS V14.01,2013-01-20 16:08:00,
2013-01-20 10:10:00,55.7,50.6,30.25,SSW,205,1.0,3.0,83,0.00,,CLR,0.00,VWS V14.01,2013-01-20 16:10:00,
2013-01-20 10:13:00,58.4,50.5,30.25,South,184,3.0,5.0,75,0.00,,CLR,0.00,VWS V14.01,2013-01-20 16:13:00,
2013-01-20 10:18:00,59.1,50.8,30.25,South,184,2.0,5.0,74,0.00,,CLR,0.00,VWS V14.01,2013-01-20 16:18:00,
2013-01-20 10:20:00,57.6,50.8,30.25,SSW,205,0.0,2.0,78,0.00,,CLR,0.00,VWS V14.01,2013-01-20 16:20:00,
2013-01-20 10:23:00,59.4,50.4,30.25,SW,227,3.0,4.0,72,0.00,,CLR,0.00,VWS V14.01,2013-01-20 16:23:00,
2013-01-20 10:28:00,59.6,50.6,30.25,SSW,208,2.0,4.0,72,0.00,,CLR,0.00,VWS V14.01,2013-01-20 16:28:00,
2013-01-20 10:30:00,59.1,50.8,30.25,South,184,2.0,5.0,74,0.00,,CLR,0.00,VWS V14.01,2013-01-20 16:30:00,
2013-01-20 10:33:00,59.6,50.6,30.25,SSW,204,3.0,3.0,72,0.00,,BKN014,0.00,VWS V14.01,2013-01-20 16:33:00,
2013-01-20 10:38:00,59.7,51.0,30.25,South,191,2.0,4.0,73,0.00,,BKN014,0.00,VWS V14.01,2013-01-20 16:38:00,
2013-01-20 10:40:00,59.6,50.6,30.25,SSW,204,3.0,4.0,72,0.00,,CLR,0.00,VWS V14.01,2013-01-20 16:40:00,
2013-01-20 10:43:00,60.0,51.3,30.25,SSW,195,0.0,5.0,73,0.00,,BKN014,0.00,VWS V14.01,2013-01-20 16:43:00,
2013-01-20 10:48:00,60.2,51.5,30.25,SSW,195,0.0,5.0,73,0.00,,BKN014,0.00,VWS V14.01,2013-01-20 16:48:00,
2013-01-20 10:50:00,59.7,51.0,30.25,SSW,192,1.0,4.0,73,0.00,,CLR,0.00,VWS V14.01,2013-01-20 16:50:00,
2013-01-20 10:53:00,60.5,51.4,30.25,South,181,0.0,4.0,72,0.00,,BKN014,0.00,VWS V14.01,2013-01-20 16:53:00,
2013-01-20 10:58:00,60.7,52.0,30.25,SSW,213,0.0,4.0,73,0.00,,BKN014,0.00,VWS V14.01,2013-01-20 16:58:00,
2013-01-20 11:00:00,60.2,51.5,30.25,SSW,195,1.0,5.0,73,0.00,,CLR,0.00,VWS V14.01,2013-01-20 17:00:00,
2013-01-20 11:03:00,61.1,52.4,30.24,SW,214,0.0,5.0,73,0.00,,SCT014,0.00,VWS V14.01,2013-01-20 17:03:00,
2013-01-20 11:08:00,61.8,52.3,30.24,SSW,205,0.0,5.0,71,0.00,,SCT014,0.00,VWS V14.01,2013-01-20 17:08:00,
2013-01-20 11:10:00,60.7,52.0,30.25,SSW,213,1.0,4.0,73,0.00,,CLR,0.00,VWS V14.01,2013-01-20 17:10:00,
2013-01-20 11:13:00,62.6,52.7,30.24,SSW,202,0.0,4.0,70,0.00,,SCT014,0.00,VWS V14.01,2013-01-20 17:13:00,
2013-01-20 11:18:00,63.4,53.5,30.24,SSW,193,4.0,4.0,70,0.00,,SCT014,0.00,VWS V14.01,2013-01-20 17:18:00,
2013-01-20 11:20:00,61.8,52.3,30.24,SSW,205,0.0,5.0,71,0.00,,CLR,0.00,VWS V14.01,2013-01-20 17:20:00,
2013-01-20 11:23:00,63.5,53.2,30.24,SSW,193,2.0,7.0,69,0.00,,SCT014,0.00,VWS V14.01,2013-01-20 17:23:00,
2013-01-20 11:28:00,63.7,53.0,30.24,SW,224,1.0,7.0,68,0.00,,SCT014,0.00,VWS V14.01,2013-01-20 17:28:00,
2013-01-20 11:30:00,63.4,53.5,30.24,SSW,193,5.0,6.0,70,0.00,,CLR,0.00,VWS V14.01,2013-01-20 17:30:00,
2013-01-20 11:33:00,64.0,53.2,30.23,SSW,196,0.0,5.0,68,0.00,,SCT014,0.00,VWS V14.01,2013-01-20 17:33:00,
2013-01-20 11:38:00,64.3,53.1,30.23,South,189,3.0,5.0,67,0.00,,SCT014,0.00,VWS V14.01,2013-01-20 17:38:00,
2013-01-20 11:40:00,63.7,53.0,30.24,WSW,246,2.0,7.0,68,0.00,,CLR,0.00,VWS V14.01,2013-01-20 17:40:00,
2013-01-20 11:43:00,64.8,53.6,30.23,South,190,0.0,4.0,67,0.00,,SCT014,0.00,VWS V14.01,2013-01-20 17:43:00,
2013-01-20 11:48:00,64.7,53.5,30.22,SSW,192,0.0,4.0,67,0.00,,SCT014,0.00,VWS V14.01,2013-01-20 17:48:00,
2013-01-20 11:50:00,64.3,53.1,30.23,South,189,4.0,5.0,67,0.00,,CLR,0.00,VWS V14.01,2013-01-20 17:50:00,
2013-01-20 11:53:00,64.7,53.5,30.22,South,185,3.0,3.0,67,0.00,,SCT014,0.00,VWS V14.01,2013-01-20 17:53:00,
2013-01-20 11:58:00,64.8,53.2,30.22,SSW,207,0.0,6.0,66,0.00,,SCT014,0.00,VWS V14.01,2013-01-20 17:58:00,
2013-01-20 12:00:00,64.7,53.5,30.22,SSW,192,1.0,4.0,67,0.00,,CLR,0.00,VWS V14.01,2013-01-20 18:00:00,
2013-01-20 12:03:00,65.5,53.4,30.21,SSW,206,2.0,5.0,65,0.00,,FEW016,0.00,VWS V14.01,2013-01-20 18:03:00,
2013-01-20 12:08:00,65.8,53.7,30.21,SSW,204,3.0,5.0,65,0.00,,FEW016,0.00,VWS V14.01,2013-01-20 18:08:00,
2013-01-20 12:10:00,64.8,53.2,30.22,SSW,207,0.0,6.0,66,0.00,,CLR,0.00,VWS V14.01,2013-01-20 18:10:00,
2013-01-20 12:13:00,65.9,53.8,30.21,WSW,254,0.0,5.0,65,0.00,,FEW016,0.00,VWS V14.01,2013-01-20 18:13:00,
2013-01-20 12:18:00,65.8,53.7,30.20,South,186,2.0,5.0,65,0.00,,FEW016,0.00,VWS V14.01,2013-01-20 18:18:00,
2013-01-20 12:20:00,65.8,53.7,30.21,SSW,204,3.0,5.0,65,0.00,,CLR,0.00,VWS V14.01,2013-01-20 18:20:00,
2013-01-20 12:23:00,66.1,54.0,30.20,SSW,212,0.0,3.0,65,0.00,,FEW016,0.00,VWS V14.01,2013-01-20 18:23:00,
2013-01-20 12:28:00,66.8,53.4,30.20,SSW,213,3.0,4.0,62,0.00,,FEW016,0.00,VWS V14.01,2013-01-20 18:28:00,
2013-01-20 12:30:00,65.8,53.3,30.20,South,186,0.0,5.0,64,0.00,,CLR,0.00,VWS V14.01,2013-01-20 18:30:00,
2013-01-20 12:33:00,67.1,53.2,30.19,SSW,200,2.0,5.0,61,0.00,,FEW016,0.00,VWS V14.01,2013-01-20 18:33:00,
2013-01-20 12:38:00,67.4,53.0,30.19,WSW,248,1.0,5.0,60,0.00,,FEW016,0.00,VWS V14.01,2013-01-20 18:38:00,
2013-01-20 12:40:00,66.8,53.4,30.20,SSW,213,1.0,4.0,62,0.00,,CLR,0.00,VWS V14.01,2013-01-20 18:40:00,
2013-01-20 12:43:00,67.6,53.2,30.19,SW,225,0.0,3.0,60,0.00,,FEW016,0.00,VWS V14.01,2013-01-20 18:43:00,
2013-01-20 12:48:00,67.8,53.0,30.18,WSW,242,0.0,3.0,59,0.00,,FEW016,0.00,VWS V14.01,2013-01-20 18:48:00,
2013-01-20 12:50:00,67.4,53.0,30.19,WSW,250,2.0,5.0,60,0.00,,CLR,0.00,VWS V14.01,2013-01-20 18:50:00,
2013-01-20 12:53:00,67.9,52.6,30.18,SSW,204,0.0,4.0,58,0.00,,FEW016,0.00,VWS V14.01,2013-01-20 18:53:00,
2013-01-20 12:58:00,68.1,52.3,30.18,SSW,193,1.0,6.0,57,0.00,,FEW016,0.00,VWS V14.01,2013-01-20 18:58:00,
2013-01-20 13:00:00,67.8,53.0,30.18,WSW,241,0.0,3.0,59,0.00,,CLR,0.00,VWS V14.01,2013-01-20 19:00:00,
2013-01-20 13:03:00,67.9,51.6,30.17,SSW,192,2.0,7.0,56,0.00,,CLR,0.00,VWS V14.01,2013-01-20 19:03:00,
2013-01-20 13:08:00,67.9,51.6,30.17,SSW,196,0.0,7.0,56,0.00,,CLR,0.00,VWS V14.01,2013-01-20 19:08:00,
2013-01-20 13:10:00,68.1,51.8,30.18,SSW,193,1.0,6.0,56,0.00,,CLR,0.00,VWS V14.01,2013-01-20 19:10:00,
2013-01-20 13:13:00,68.4,52.6,30.17,South,188,1.0,4.0,57,0.00,,CLR,0.00,VWS V14.01,2013-01-20 19:13:00,
2013-01-20 13:18:00,68.6,50.8,30.15,South,187,0.0,5.0,53,0.00,,CLR,0.00,VWS V14.01,2013-01-20 19:18:00,
2013-01-20 13:20:00,67.9,51.6,30.17,SSW,196,0.0,7.0,56,0.00,,CLR,0.00,VWS V14.01,2013-01-20 19:20:00,
2013-01-20 13:23:00,69.1,51.8,30.15,SSW,203,0.0,5.0,54,0.00,,CLR,0.00,VWS V14.01,2013-01-20 19:23:00,
2013-01-20 13:28:00,69.3,50.9,30.15,SSW,196,1.0,5.0,52,0.00,,CLR,0.00,VWS V14.01,2013-01-20 19:28:00,
2013-01-20 13:30:00,68.6,50.8,30.15,South,187,0.0,5.0,53,0.00,,CLR,0.00,VWS V14.01,2013-01-20 19:30:00,
2013-01-20 13:33:00,69.6,52.2,30.14,SSW,194,2.0,4.0,54,0.00,,CLR,0.00,VWS V14.01,2013-01-20 19:33:00,
2013-01-20 13:38:00,70.3,51.3,30.14,SSW,196,0.0,5.0,51,0.00,,CLR,0.00,VWS V14.01,2013-01-20 19:38:00,
2013-01-20 13:40:00,69.3,51.5,30.15,SSW,196,2.0,5.0,53,0.00,,CLR,0.00,VWS V14.01,2013-01-20 19:40:00,
2013-01-20 13:43:00,70.6,50.0,30.14,SSW,194,4.0,4.0,48,0.00,,CLR,0.00,VWS V14.01,2013-01-20 19:43:00,
2013-01-20 13:48:00,70.3,50.3,30.14,SSW,192,0.0,5.0,49,0.00,,CLR,0.00,VWS V14.01,2013-01-20 19:48:00,
2013-01-20 13:50:00,70.3,51.3,30.14,SSW,196,1.0,5.0,51,0.00,,CLR,0.00,VWS V14.01,2013-01-20 19:50:00,
2013-01-20 13:53:00,69.8,48.7,30.14,South,185,2.0,7.0,47,0.00,,CLR,0.00,VWS V14.01,2013-01-20 19:53:00,
2013-01-20 13:58:00,69.8,50.3,30.14,SSW,207,0.0,7.0,50,0.00,,CLR,0.00,VWS V14.01,2013-01-20 19:58:00,
2013-01-20 14:00:00,70.1,50.1,30.14,SSW,192,0.0,5.0,49,0.00,,CLR,0.00,VWS V14.01,2013-01-20 20:00:00,
2013-01-20 14:03:00,70.1,49.5,30.13,NNW,342,3.0,5.0,48,0.00,,CLR,0.00,VWS V14.01,2013-01-20 20:03:00,
2013-01-20 14:08:00,70.3,49.1,30.13,South,184,0.0,6.0,47,0.00,,CLR,0.00,VWS V14.01,2013-01-20 20:08:00,
2013-01-20 14:10:00,69.8,50.3,30.14,SSW,207,0.0,7.0,50,0.00,,CLR,0.00,VWS V14.01,2013-01-20 20:10:00,
2013-01-20 14:13:00,70.6,50.5,30.13,SSW,199,0.0,4.0,49,0.00,,CLR,0.00,VWS V14.01,2013-01-20 20:13:00,
2013-01-20 14:18:00,71.0,49.2,30.12,SSW,201,0.0,5.0,46,0.00,,CLR,0.00,VWS V14.01,2013-01-20 20:18:00,
2013-01-20 14:20:00,70.3,49.1,30.13,South,184,0.0,6.0,47,0.00,,CLR,0.00,VWS V14.01,2013-01-20 20:20:00,
2013-01-20 14:23:00,71.1,49.3,30.12,South,182,4.0,4.0,46,0.00,,CLR,0.00,VWS V14.01,2013-01-20 20:23:00,
2013-01-20 14:28:00,71.1,47.5,30.12,South,184,0.0,0.0,43,0.00,,CLR,0.00,VWS V14.01,2013-01-20 20:28:00,
2013-01-20 14:30:00,71.0,49.2,30.12,SSW,201,0.0,5.0,46,0.00,,CLR,0.00,VWS V14.01,2013-01-20 20:30:00,
2013-01-20 14:33:00,71.3,47.7,30.11,South,184,1.0,4.0,43,0.00,,CLR,0.00,VWS V14.01,2013-01-20 20:33:00,
2013-01-20 14:38:00,71.0,46.1,30.11,SSE,168,0.0,0.0,41,0.00,,CLR,0.00,VWS V14.01,2013-01-20 20:38:00,
2013-01-20 14:40:00,71.1,47.5,30.12,South,184,0.0,4.0,43,0.00,,CLR,0.00,VWS V14.01,2013-01-20 20:40:00,
2013-01-20 14:43:00,70.3,48.6,30.11,SSW,200,5.0,5.0,46,0.00,,CLR,0.00,VWS V14.01,2013-01-20 20:43:00,
2013-01-20 14:48:00,70.8,50.2,30.10,SSW,200,1.0,1.0,48,0.00,,CLR,0.00,VWS V14.01,2013-01-20 20:48:00,
2013-01-20 14:50:00,71.0,46.1,30.11,SSE,168,0.0,4.0,41,0.00,,CLR,0.00,VWS V14.01,2013-01-20 20:50:00,
2013-01-20 14:53:00,71.1,48.1,30.10,SSW,200,0.0,3.0,44,0.00,,CLR,0.00,VWS V14.01,2013-01-20 20:53:00,
2013-01-20 14:58:00,71.5,47.8,30.10,SSW,192,0.0,0.0,43,0.00,,CLR,0.00,VWS V14.01,2013-01-20 20:58:00,
2013-01-20 15:00:00,70.8,50.2,30.10,SSW,200,1.0,5.0,48,0.00,,CLR,0.00,VWS V14.01,2013-01-20 21:00:00,
2013-01-20 15:03:00,71.8,46.2,30.10,SSW,198,0.0,7.0,40,0.00,,CLR,0.00,VWS V14.01,2013-01-20 21:03:00,
2013-01-20 15:08:00,71.8,45.5,30.10,SSW,198,1.0,1.0,39,0.00,,CLR,0.00,VWS V14.01,2013-01-20 21:08:00,
2013-01-20 15:10:00,71.5,47.8,30.10,SSW,192,0.0,4.0,43,0.00,,CLR,0.00,VWS V14.01,2013-01-20 21:10:00,
2013-01-20 15:13:00,71.6,47.3,30.10,SSW,193,0.0,5.0,42,0.00,,CLR,0.00,VWS V14.01,2013-01-20 21:13:00,
2013-01-20 15:18:00,71.3,47.7,30.10,North,5,0.0,5.0,43,0.00,,CLR,0.00,VWS V14.01,2013-01-20 21:18:00,
2013-01-20 15:20:00,71.8,45.5,30.10,SSW,198,1.0,7.0,39,0.00,,CLR,0.00,VWS V14.01,2013-01-20 21:20:00,
2013-01-20 15:23:00,71.1,45.6,30.10,South,174,2.0,4.0,40,0.00,,CLR,0.00,VWS V14.01,2013-01-20 21:23:00,
2013-01-20 15:28:00,70.8,46.0,30.10,South,186,0.0,0.0,41,0.00,,CLR,0.00,VWS V14.01,2013-01-20 21:28:00,
2013-01-20 15:30:00,71.3,47.7,30.10,North,5,0.0,5.0,43,0.00,,CLR,0.00,VWS V14.01,2013-01-20 21:30:00,
2013-01-20 15:33:00,70.8,46.0,30.10,South,186,0.0,1.0,41,0.00,,CLR,0.00,VWS V14.01,2013-01-20 21:33:00,
2013-01-20 15:38:00,71.1,44.9,30.10,South,187,2.0,3.0,39,0.00,,CLR,0.00,VWS V14.01,2013-01-20 21:38:00,
2013-01-20 15:40:00,70.8,46.0,30.10,South,186,0.0,5.0,41,0.00,,CLR,0.00,VWS V14.01,2013-01-20 21:40:00,
2013-01-20 15:43:00,71.1,45.6,30.10,SSW,198,5.0,5.0,40,0.00,,CLR,0.00,VWS V14.01,2013-01-20 21:43:00,
2013-01-20 15:48:00,71.0,46.8,30.10,SSW,198,0.0,0.0,42,0.00,,CLR,0.00,VWS V14.01,2013-01-20 21:48:00,
2013-01-20 15:50:00,71.1,44.9,30.10,South,187,3.0,3.0,39,0.00,,CLR,0.00,VWS V14.01,2013-01-20 21:50:00,
2013-01-20 15:53:00,70.8,46.0,30.10,SSW,198,0.0,1.0,41,0.00,,CLR,0.00,VWS V14.01,2013-01-20 21:53:00,
2013-01-20 15:58:00,70.8,46.0,30.10,SSW,198,0.0,0.0,41,0.00,,CLR,0.00,VWS V14.01,2013-01-20 21:58:00,
2013-01-20 16:00:00,71.0,46.8,30.10,SSW,198,0.0,5.0,42,0.00,,CLR,0.00,VWS V14.01,2013-01-20 22:00:00,
2013-01-20 16:03:00,70.4,47.5,30.10,SSW,199,0.0,2.0,44,0.00,,CLR,0.00,VWS V14.01,2013-01-20 22:03:00,
2013-01-20 16:08:00,70.4,47.5,30.10,SSW,200,1.0,1.0,44,0.00,,CLR,0.00,VWS V14.01,2013-01-20 22:08:00,
2013-01-20 16:10:00,70.8,46.0,30.10,SSW,198,0.0,1.0,41,0.00,,CLR,0.00,VWS V14.01,2013-01-20 22:10:00,
2013-01-20 16:13:00,70.1,47.8,30.10,NNW,336,0.0,3.0,45,0.00,,CLR,0.00,VWS V14.01,2013-01-20 22:13:00,
2013-01-20 16:18:00,70.1,47.2,30.10,NNW,328,0.0,0.0,44,0.00,,CLR,0.00,VWS V14.01,2013-01-20 22:18:00,
2013-01-20 16:20:00,70.4,47.5,30.10,SSW,200,0.0,2.0,44,0.00,,CLR,0.00,VWS V14.01,2013-01-20 22:20:00,
2013-01-20 16:23:00,69.9,48.2,30.10,South,186,2.0,4.0,46,0.00,,CLR,0.00,VWS V14.01,2013-01-20 22:23:00,
2013-01-20 16:28:00,69.6,47.3,30.10,South,188,2.0,2.0,45,0.00,,CLR,0.00,VWS V14.01,2013-01-20 22:28:00,
2013-01-20 16:30:00,70.1,47.2,30.10,NNW,328,0.0,3.0,44,0.00,,CLR,0.00,VWS V14.01,2013-01-20 22:30:00,
2013-01-20 16:33:00,69.4,47.7,30.09,South,190,0.0,4.0,46,0.00,,CLR,0.00,VWS V14.01,2013-01-20 22:33:00,
2013-01-20 16:38:00,69.3,48.2,30.09,South,190,0.0,0.0,47,0.00,,CLR,0.00,VWS V14.01,2013-01-20 22:38:00,
2013-01-20 16:40:00,69.6,47.9,30.10,South,188,2.0,4.0,46,0.00,,CLR,0.00,VWS V14.01,2013-01-20 22:40:00,
2013-01-20 16:43:00,69.1,48.0,30.09,South,190,0.0,1.0,47,0.00,,CLR,0.00,VWS V14.01,2013-01-20 22:43:00,
2013-01-20 16:48:00,68.9,47.9,30.09,South,190,1.0,2.0,47,0.00,,CLR,0.00,VWS V14.01,2013-01-20 22:48:00,
2013-01-20 16:50:00,69.3,48.2,30.09,South,190,0.0,4.0,47,0.00,,CLR,0.00,VWS V14.01,2013-01-20 22:50:00,
2013-01-20 16:53:00,68.6,47.6,30.09,South,190,0.0,3.0,47,0.00,,CLR,0.00,VWS V14.01,2013-01-20 22:53:00,
2013-01-20 16:58:00,68.4,48.0,30.09,South,190,1.0,2.0,48,0.00,,CLR,0.00,VWS V14.01,2013-01-20 22:58:00,
2013-01-20 17:00:00,68.9,47.9,30.09,South,190,0.0,3.0,47,0.00,,CLR,0.00,VWS V14.01,2013-01-20 23:00:00,
2013-01-20 17:03:00,68.3,47.3,30.09,SSW,192,1.0,4.0,47,0.00,,CLR,0.00,VWS V14.01,2013-01-20 23:03:00,
2013-01-20 17:08:00,68.1,48.2,30.09,SSW,192,0.0,0.0,49,0.00,,CLR,0.00,VWS V14.01,2013-01-20 23:08:00,
2013-01-20 17:10:00,68.4,48.0,30.09,South,190,2.0,3.0,48,0.00,,CLR,0.00,VWS V14.01,2013-01-20 23:10:00,
2013-01-20 17:13:00,67.9,48.1,30.09,SSW,192,0.0,0.0,49,0.00,,CLR,0.00,VWS V14.01,2013-01-20 23:13:00,
2013-01-20 17:18:00,67.6,47.8,30.10,SSW,192,2.0,2.0,49,0.00,,CLR,0.00,VWS V14.01,2013-01-20 23:18:00,
2013-01-20 17:20:00,68.1,48.2,30.09,SSW,192,0.0,4.0,49,0.00,,CLR,0.00,VWS V14.01,2013-01-20 23:20:00,
2013-01-20 17:23:00,67.1,47.3,30.10,SSW,192,0.0,2.0,49,0.00,,CLR,0.00,VWS V14.01,2013-01-20 23:23:00,
2013-01-20 17:28:00,66.8,47.6,30.10,SSW,192,0.0,0.0,50,0.00,,CLR,0.00,VWS V14.01,2013-01-20 23:28:00,
2013-01-20 17:30:00,67.6,47.8,30.10,SSW,192,1.0,2.0,49,0.00,,CLR,0.00,VWS V14.01,2013-01-20 23:30:00,
2013-01-20 17:33:00,66.4,47.2,30.10,SSW,192,0.0,0.0,50,0.00,,CLR,0.00,VWS V14.01,2013-01-20 23:33:00,
2013-01-20 17:38:00,66.3,47.7,30.10,SSW,192,0.0,0.0,51,0.00,,CLR,0.00,VWS V14.01,2013-01-20 23:38:00,
2013-01-20 17:40:00,66.8,47.6,30.10,SSW,192,0.0,2.0,50,0.00,,CLR,0.00,VWS V14.01,2013-01-20 23:40:00,
2013-01-20 17:43:00,65.6,47.5,30.10,SSW,192,0.0,0.0,52,0.00,,CLR,0.00,VWS V14.01,2013-01-20 23:43:00,
2013-01-20 17:48:00,65.1,47.6,30.10,SSW,192,0.0,0.0,53,0.00,,CLR,0.00,VWS V14.01,2013-01-20 23:48:00,
2013-01-20 17:50:00,66.3,47.7,30.10,SSW,192,0.0,0.0,51,0.00,,CLR,0.00,VWS V14.01,2013-01-20 23:50:00,
2013-01-20 17:53:00,64.7,47.7,30.10,SSW,192,0.0,0.0,54,0.00,,CLR,0.00,VWS V14.01,2013-01-20 23:53:00,
2013-01-20 17:58:00,63.8,47.3,30.10,SSW,192,0.0,0.0,55,0.00,,CLR,0.00,VWS V14.01,2013-01-20 23:58:00,
2013-01-20 18:00:00,65.1,47.6,30.10,SSW,192,0.0,0.0,53,0.00,,CLR,0.00,VWS V14.01,2013-01-21 00:00:00,
2013-01-20 18:03:00,62.9,47.5,30.09,SSW,192,0.0,0.0,57,0.00,,CLR,0.00,VWS V14.01,2013-01-21 00:03:00,
2013-01-20 18:08:00,61.9,47.0,30.09,SSW,192,0.0,0.0,58,0.00,,CLR,0.00,VWS V14.01,2013-01-21 00:08:00,
2013-01-20 18:10:00,63.8,47.3,30.10,SSW,192,0.0,0.0,55,0.00,,CLR,0.00,VWS V14.01,2013-01-21 00:10:00,
2013-01-20 18:13:00,61.1,46.7,30.09,SSW,192,0.0,0.0,59,0.00,,CLR,0.00,VWS V14.01,2013-01-21 00:13:00,
2013-01-20 18:18:00,60.5,47.0,30.10,SSW,192,0.0,0.0,61,0.00,,CLR,0.00,VWS V14.01,2013-01-21 00:18:00,
2013-01-20 18:20:00,61.9,47.0,30.09,SSW,192,0.0,0.0,58,0.00,,CLR,0.00,VWS V14.01,2013-01-21 00:20:00,
2013-01-20 18:23:00,59.9,46.4,30.10,SSW,192,0.0,0.0,61,0.00,,CLR,0.00,VWS V14.01,2013-01-21 00:23:00,
2013-01-20 18:28:00,59.1,46.5,30.10,SSW,192,0.0,0.0,63,0.00,,CLR,0.00,VWS V14.01,2013-01-21 00:28:00,
2013-01-20 18:30:00,60.5,47.0,30.10,SSW,192,0.0,0.0,61,0.00,,CLR,0.00,VWS V14.01,2013-01-21 00:30:00,
2013-01-20 18:33:00,58.4,46.7,30.10,SSW,192,0.0,0.0,65,0.00,,CLR,0.00,VWS V14.01,2013-01-21 00:33:00,
2013-01-20 18:38:00,57.8,46.1,30.10,SSW,192,0.0,0.0,65,0.00,,CLR,0.00,VWS V14.01,2013-01-21 00:38:00,
2013-01-20 18:40:00,59.1,46.5,30.10,SSW,192,0.0,0.0,63,0.00,,CLR,0.00,VWS V14.01,2013-01-21 00:40:00,
2013-01-20 18:43:00,57.1,45.5,30.10,SSW,192,0.0,0.0,65,0.00,,CLR,0.00,VWS V14.01,2013-01-21 00:43:00,
2013-01-20 18:48:00,56.7,45.9,30.10,SSW,192,0.0,0.0,67,0.00,,CLR,0.00,VWS V14.01,2013-01-21 00:48:00,
2013-01-20 18:50:00,57.8,46.1,30.10,SSW,192,0.0,0.0,65,0.00,,CLR,0.00,VWS V14.01,2013-01-21 00:50:00,
2013-01-20 18:53:00,56.2,45.8,30.10,SSW,192,0.0,0.0,68,0.00,,CLR,0.00,VWS V14.01,2013-01-21 00:53:00,
2013-01-20 18:58:00,55.8,46.2,30.10,SSW,192,0.0,0.0,70,0.00,,CLR,0.00,VWS V14.01,2013-01-21 00:58:00,
2013-01-20 19:00:00,56.7,45.9,30.10,SSW,192,0.0,0.0,67,0.00,,CLR,0.00,VWS V14.01,2013-01-21 01:00:00,
2013-01-20 19:03:00,55.4,45.8,30.10,SSW,192,0.0,0.0,70,0.00,,CLR,0.00,VWS V14.01,2013-01-21 01:03:00,
2013-01-20 19:08:00,54.9,45.7,30.10,SSW,192,0.0,0.0,71,0.00,,CLR,0.00,VWS V14.01,2013-01-21 01:08:00,
2013-01-20 19:10:00,55.8,46.2,30.10,SSW,192,0.0,0.0,70,0.00,,CLR,0.00,VWS V14.01,2013-01-21 01:10:00,
2013-01-20 19:13:00,54.3,45.5,30.10,SSW,192,0.0,0.0,72,0.00,,CLR,0.00,VWS V14.01,2013-01-21 01:13:00,
2013-01-20 19:18:00,53.7,44.9,30.10,SSW,192,0.0,0.0,72,0.00,,CLR,0.00,VWS V14.01,2013-01-21 01:18:00,
2013-01-20 19:20:00,55.1,45.9,30.10,SSW,192,0.0,0.0,71,0.00,,CLR,0.00,VWS V14.01,2013-01-21 01:20:00,
2013-01-20 19:23:00,53.3,44.9,30.10,SSW,192,0.0,0.0,73,0.00,,CLR,0.00,VWS V14.01,2013-01-21 01:23:00,
2013-01-20 19:28:00,53.1,45.0,30.10,SSW,192,0.0,0.0,74,0.00,,CLR,0.00,VWS V14.01,2013-01-21 01:28:00,
2013-01-20 19:30:00,53.7,44.9,30.10,SSW,192,0.0,0.0,72,0.00,,CLR,0.00,VWS V14.01,2013-01-21 01:30:00,
2013-01-20 19:33:00,52.8,45.1,30.10,SSW,192,0.0,0.0,75,0.00,,CLR,0.00,VWS V14.01,2013-01-21 01:33:00,
2013-01-20 19:38:00,52.6,44.9,30.10,SSW,192,0.0,0.0,75,0.00,,CLR,0.00,VWS V14.01,2013-01-21 01:38:00,
2013-01-20 19:40:00,53.1,45.0,30.10,SSW,192,0.0,0.0,74,0.00,,CLR,0.00,VWS V14.01,2013-01-21 01:40:00,
2013-01-20 19:43:00,52.4,45.1,30.10,SSW,192,0.0,0.0,76,0.00,,CLR,0.00,VWS V14.01,2013-01-21 01:43:00,
2013-01-20 19:48:00,52.1,45.1,30.11,SSW,192,0.0,0.0,77,0.00,,CLR,0.00,VWS V14.01,2013-01-21 01:48:00,
2013-01-20 19:50:00,52.7,45.0,30.10,SSW,192,0.0,0.0,75,0.00,,CLR,0.00,VWS V14.01,2013-01-21 01:50:00,
2013-01-20 19:53:00,51.8,45.2,30.11,SSW,192,0.0,0.0,78,0.00,,CLR,0.00,VWS V14.01,2013-01-21 01:53:00,
2013-01-20 19:58:00,51.7,45.1,30.11,SSW,192,0.0,0.0,78,0.00,,CLR,0.00,VWS V14.01,2013-01-21 01:58:00,
2013-01-20 20:00:00,52.1,45.1,30.11,SSW,192,0.0,0.0,77,0.00,,CLR,0.00,VWS V14.01,2013-01-21 02:00:00,
2013-01-20 20:03:00,51.5,45.5,30.11,SSW,192,0.0,0.0,80,0.00,,CLR,0.00,VWS V14.01,2013-01-21 02:03:00,
2013-01-20 20:08:00,51.4,45.5,30.11,SSW,192,0.0,0.0,80,0.00,,CLR,0.00,VWS V14.01,2013-01-21 02:08:00,
2013-01-20 20:10:00,51.7,45.1,30.11,SSW,192,0.0,0.0,78,0.00,,CLR,0.00,VWS V14.01,2013-01-21 02:10:00,
2013-01-20 20:13:00,51.1,45.2,30.11,SSW,192,0.0,0.0,80,0.00,,CLR,0.00,VWS V14.01,2013-01-21 02:13:00,
2013-01-20 20:18:00,50.9,45.0,30.11,SSW,192,0.0,0.0,80,0.00,,CLR,0.00,VWS V14.01,2013-01-21 02:18:00,
2013-01-20 20:20:00,51.4,45.5,30.11,SSW,192,0.0,0.0,80,0.00,,CLR,0.00,VWS V14.01,2013-01-21 02:20:00,
2013-01-20 20:23:00,50.6,45.0,30.11,SSW,192,0.0,0.0,81,0.00,,CLR,0.00,VWS V14.01,2013-01-21 02:23:00,
2013-01-20 20:28:00,50.5,44.9,30.11,SSW,192,0.0,0.0,81,0.00,,CLR,0.00,VWS V14.01,2013-01-21 02:28:00,
2013-01-20 20:30:00,50.9,45.0,30.11,SSW,192,0.0,0.0,80,0.00,,CLR,0.00,VWS V14.01,2013-01-21 02:30:00,
2013-01-20 20:33:00,50.3,45.0,30.12,SSW,192,0.0,0.0,82,0.00,,CLR,0.00,VWS V14.01,2013-01-21 02:33:00,
2013-01-20 20:38:00,50.3,45.3,30.12,SSW,192,0.0,0.0,83,0.00,,CLR,0.00,VWS V14.01,2013-01-21 02:38:00,
2013-01-20 20:40:00,50.5,44.9,30.11,SSW,192,0.0,0.0,81,0.00,,CLR,0.00,VWS V14.01,2013-01-21 02:40:00,
2013-01-20 20:43:00,50.2,45.2,30.12,SSW,192,0.0,0.0,83,0.00,,CLR,0.00,VWS V14.01,2013-01-21 02:43:00,
2013-01-20 20:48:00,50.3,45.7,30.12,SSW,192,0.0,0.0,84,0.00,,CLR,0.00,VWS V14.01,2013-01-21 02:48:00,
2013-01-20 20:50:00,50.3,45.3,30.12,SSW,192,0.0,0.0,83,0.00,,CLR,0.00,VWS V14.01,2013-01-21 02:50:00,
2013-01-20 20:53:00,50.3,45.7,30.12,SSW,192,0.0,0.0,84,0.00,,CLR,0.00,VWS V14.01,2013-01-21 02:53:00,
2013-01-20 20:58:00,50.2,45.9,30.12,SSW,192,0.0,0.0,85,0.00,,CLR,0.00,VWS V14.01,2013-01-21 02:58:00,
2013-01-20 21:00:00,50.3,45.7,30.12,SSW,192,0.0,0.0,84,0.00,,CLR,0.00,VWS V14.01,2013-01-21 03:00:00,
2013-01-20 21:03:00,50.0,45.7,30.12,SSW,192,0.0,0.0,85,0.00,,CLR,0.00,VWS V14.01,2013-01-21 03:03:00,
2013-01-20 21:09:00,49.9,45.6,30.12,SSW,192,0.0,0.0,85,0.00,,CLR,0.00,VWS V14.01,2013-01-21 03:09:00,
2013-01-20 21:10:00,50.2,45.9,30.12,SSW,192,0.0,0.0,85,0.00,,CLR,0.00,VWS V14.01,2013-01-21 03:10:00,
2013-01-20 21:14:00,49.7,45.7,30.12,SSW,192,0.0,0.0,86,0.00,,CLR,0.00,VWS V14.01,2013-01-21 03:14:00,
2013-01-20 21:19:00,49.6,45.6,30.12,SSW,192,0.0,0.0,86,0.00,,CLR,0.00,VWS V14.01,2013-01-21 03:19:00,
2013-01-20 21:20:00,49.9,45.6,30.12,SSW,192,0.0,0.0,85,0.00,,CLR,0.00,VWS V14.01,2013-01-21 03:20:00,
2013-01-20 21:24:00,49.4,45.4,30.12,SSW,192,0.0,0.0,86,0.00,,CLR,0.00,VWS V14.01,2013-01-21 03:24:00,
2013-01-20 21:29:00,49.3,45.6,30.12,SSW,192,0.0,0.0,87,0.00,,CLR,0.00,VWS V14.01,2013-01-21 03:29:00,
2013-01-20 21:30:00,49.6,45.6,30.12,SSW,192,0.0,0.0,86,0.00,,CLR,0.00,VWS V14.01,2013-01-21 03:30:00,
2013-01-20 21:34:00,49.1,45.4,30.13,SSW,192,0.0,0.0,87,0.00,,CLR,0.00,VWS V14.01,2013-01-21 03:34:00,
2013-01-20 21:39:00,49.0,45.3,30.13,SSW,192,0.0,0.0,87,0.00,,CLR,0.00,VWS V14.01,2013-01-21 03:39:00,
2013-01-20 21:40:00,49.3,45.6,30.12,SSW,192,0.0,0.0,87,0.00,,CLR,0.00,VWS V14.01,2013-01-21 03:40:00,
2013-01-20 21:44:00,48.9,45.2,30.13,SSW,192,0.0,0.0,87,0.00,,CLR,0.00,VWS V14.01,2013-01-21 03:44:00,
2013-01-20 21:49:00,48.6,44.9,30.12,SSW,192,0.0,0.0,87,0.00,,CLR,0.00,VWS V14.01,2013-01-21 03:49:00,
2013-01-20 21:50:00,49.0,45.3,30.13,SSW,192,0.0,0.0,87,0.00,,CLR,0.00,VWS V14.01,2013-01-21 03:50:00,
2013-01-20 21:54:00,48.4,44.7,30.12,SSW,192,0.0,0.0,87,0.00,,CLR,0.00,VWS V14.01,2013-01-21 03:54:00,
2013-01-20 21:59:00,48.1,44.7,30.12,SSW,192,0.0,0.0,88,0.00,,CLR,0.00,VWS V14.01,2013-01-21 03:59:00,
2013-01-20 22:00:00,48.6,44.9,30.12,SSW,192,0.0,0.0,87,0.00,,CLR,0.00,VWS V14.01,2013-01-21 04:00:00,
2013-01-20 22:04:00,48.0,44.6,30.13,SSW,192,0.0,0.0,88,0.00,,CLR,0.00,VWS V14.01,2013-01-21 04:04:00,
2013-01-20 22:09:00,47.8,44.4,30.13,SSW,192,0.0,0.0,88,0.00,,CLR,0.00,VWS V14.01,2013-01-21 04:09:00,
2013-01-20 22:10:00,48.1,44.7,30.12,SSW,192,0.0,0.0,88,0.00,,CLR,0.00,VWS V14.01,2013-01-21 04:10:00,
2013-01-20 22:14:00,47.7,44.3,30.13,SSW,192,0.0,0.0,88,0.00,,CLR,0.00,VWS V14.01,2013-01-21 04:14:00,
2013-01-20 22:19:00,47.5,44.1,30.14,SSW,192,0.0,0.0,88,0.00,,CLR,0.00,VWS V14.01,2013-01-21 04:19:00,
2013-01-20 22:20:00,47.8,44.4,30.13,SSW,192,0.0,0.0,88,0.00,,CLR,0.00,VWS V14.01,2013-01-21 04:20:00,
2013-01-20 22:24:00,47.4,44.0,30.14,SSW,192,0.0,0.0,88,0.00,,CLR,0.00,VWS V14.01,2013-01-21 04:24:00,
2013-01-20 22:29:00,47.4,44.0,30.14,SSW,192,0.0,0.0,88,0.00,,CLR,0.00,VWS V14.01,2013-01-21 04:29:00,
2013-01-20 22:30:00,47.5,44.1,30.14,SSW,192,0.0,0.0,88,0.00,,CLR,0.00,VWS V14.01,2013-01-21 04:30:00,
2013-01-20 22:34:00,47.4,44.3,30.14,SSW,192,0.0,0.0,89,0.00,,CLR,0.00,VWS V14.01,2013-01-21 04:34:00,
2013-01-20 22:39:00,47.2,44.1,30.14,SSW,192,0.0,0.0,89,0.00,,CLR,0.00,VWS V14.01,2013-01-21 04:39:00,
2013-01-20 22:40:00,47.4,44.0,30.14,SSW,192,0.0,0.0,88,0.00,,CLR,0.00,VWS V14.01,2013-01-21 04:40:00,
2013-01-20 22:44:00,47.2,44.1,30.14,SSW,192,0.0,0.0,89,0.00,,CLR,0.00,VWS V14.01,2013-01-21 04:44:00,
2013-01-20 22:49:00,47.2,44.1,30.14,SSW,192,0.0,0.0,89,0.00,,CLR,0.00,VWS V14.01,2013-01-21 04:49:00,
2013-01-20 22:50:00,47.2,44.1,30.14,SSW,192,0.0,0.0,89,0.00,,CLR,0.00,VWS V14.01,2013-01-21 04:50:00,
2013-01-20 22:54:00,47.2,44.1,30.14,SSW,192,0.0,0.0,89,0.00,,CLR,0.00,VWS V14.01,2013-01-21 04:54:00,
2013-01-20 22:59:00,47.1,44.0,30.14,SSW,192,0.0,0.0,89,0.00,,CLR,0.00,VWS V14.01,2013-01-21 04:59:00,
2013-01-20 23:00:00,47.2,44.1,30.14,SSW,192,0.0,0.0,89,0.00,,CLR,0.00,VWS V14.01,2013-01-21 05:00:00,
2013-01-20 23:01:00,47.1,44.3,30.14,SSW,192,0.0,0.0,90,0.00,,CLR,0.00,VWS V14.01,2013-01-21 05:01:00,
2013-01-20 23:03:00,47.1,44.3,30.14,SSW,192,0.0,0.0,90,0.00,,CLR,0.00,VWS V14.01,2013-01-21 05:03:00,
2013-01-20 23:08:00,47.1,44.3,30.14,SSW,192,0.0,0.0,90,0.00,,CLR,0.00,VWS V14.01,2013-01-21 05:08:00,
2013-01-20 23:10:00,47.1,44.0,30.14,SSW,192,0.0,0.0,89,0.00,,CLR,0.00,VWS V14.01,2013-01-21 05:10:00,
2013-01-20 23:13:00,46.9,43.8,30.14,SSW,192,0.0,0.0,89,0.00,,CLR,0.00,VWS V14.01,2013-01-21 05:13:00,
2013-01-20 23:18:00,46.8,44.0,30.15,SSW,192,0.0,0.0,90,0.00,,CLR,0.00,VWS V14.01,2013-01-21 05:18:00,
2013-01-20 23:20:00,47.1,44.0,30.14,SSW,192,0.0,0.0,89,0.00,,CLR,0.00,VWS V14.01,2013-01-21 05:20:00,
2013-01-20 23:23:00,46.8,44.0,30.15,SSW,192,0.0,0.0,90,0.00,,CLR,0.00,VWS V14.01,2013-01-21 05:23:00,
2013-01-20 23:28:00,46.8,44.0,30.15,SSW,192,0.0,0.0,90,0.00,,CLR,0.00,VWS V14.01,2013-01-21 05:28:00,
2013-01-20 23:30:00,46.8,44.0,30.15,SSW,192,0.0,0.0,90,0.00,,CLR,0.00,VWS V14.01,2013-01-21 05:30:00,
2013-01-20 23:33:00,46.8,44.0,30.15,SSW,192,0.0,0.0,90,0.00,,CLR,0.00,VWS V14.01,2013-01-21 05:33:00,
2013-01-20 23:38:00,46.9,44.4,30.15,SSW,192,0.0,0.0,91,0.00,,CLR,0.00,VWS V14.01,2013-01-21 05:38:00,
2013-01-20 23:40:00,46.8,44.0,30.15,SSW,192,0.0,0.0,90,0.00,,CLR,0.00,VWS V14.01,2013-01-21 05:40:00,
2013-01-20 23:43:00,46.9,44.4,30.15,SSW,192,0.0,0.0,91,0.00,,CLR,0.00,VWS V14.01,2013-01-21 05:43:00,
2013-01-20 23:48:00,46.8,44.3,30.14,SSW,192,0.0,0.0,91,0.00,,CLR,0.00,VWS V14.01,2013-01-21 05:48:00,
2013-01-20 23:50:00,46.9,44.4,30.15,SSW,192,0.0,0.0,91,0.00,,CLR,0.00,VWS V14.01,2013-01-21 05:50:00,
2013-01-20 23:53:00,46.8,44.3,30.14,SSW,192,0.0,0.0,91,0.00,,CLR,0.00,VWS V14.01,2013-01-21 05:53:00,
2013-01-20 23:58:00,46.8,44.3,30.14,SSW,192,0.0,0.0,91,0.00,,CLR,0.00,VWS V14.01,2013-01-21 05:58:00,